Amelia City, Florida
Current Conditions -  °F | °C
As of 12:15 AM on Monday 20 Oct 2014 (Local Time) from KFHB Reporting Station
Broken Clouds Broken Clouds  
Wind Chill: 72°   Ceiling: 3700
Heat Index: 72°   Visibility: 10mi
Dew Point: 59°   Wind: 7mph
Humidity: 64%   Direction: 90°E
Pressure: 30.09"   Gusts: NA
Location:  30.6056°N, 81.5268°W
Report Text: KFHB 200415Z AUTO 09006KT 10SM BKN037 22/15 A3009 RMK AO1
Loading
Personal Weather Stations






























Interactive Weather Map New forecast layout! Learn more

10-Day Weather Forecast

Advertisements
Track Severe Weather on mobile